Time;durP1;ratioP1;P1;durP2;ratioP2;P2;SDS_P1;SDS_P2;PMS_P1;PMS_P2;Temp;Humidity;BMP_temperature;BMP_pressure;BME280_temperature;BME280_humidity;BME280_pressure;Samples;Min_cycle;Max_cycle;Signal;HPM_P1;HPM_P2
2022/09/08 00:01:30;;;;;;;;;1.00;1.00;;;;;;;;5097926;27;47404;-74
2022/09/08 00:03:55;;;;;;;;;0.33;0.33;;;;;;;;5097451;27;45445;-75
2022/09/08 00:06:21;;;;;;;;;1.33;1.33;;;;;;;;5098347;27;45260;-74
2022/09/08 00:08:47;;;;;;;;;0.75;0.75;;;;;;;;5098167;27;45343;-75
2022/09/08 00:11:15;;;;;;;;;1.00;0.25;;;;;;;;5098087;27;45897;-74
2022/09/08 00:13:42;;;;;;;;;2.00;2.00;;;;;;;;5098241;27;45237;-75
2022/09/08 00:16:09;;;;;;;;;3.00;1.67;;;;;;;;5097836;27;45431;-75
2022/09/08 00:18:35;;;;;;;;;1.00;1.00;;;;;;;;5097620;27;45443;-75
2022/09/08 00:21:00;;;;;;;;;2.00;2.00;;;;;;;;5097836;27;46226;-75
2022/09/08 00:23:25;;;;;;;;;1.00;1.00;;;;;;;;5097923;27;45237;-75
2022/09/08 00:25:51;;;;;;;;;1.00;1.00;;;;;;;;5098057;27;45413;-75
2022/09/08 00:28:16;;;;;;;;;2.00;1.00;;;;;;;;5101754;27;45673;-75
2022/09/08 00:30:41;;;;;;;;;3.25;1.00;;;;;;;;5101479;27;46555;-75
2022/09/08 00:33:06;;;;;;;;;2.75;1.25;;;;;;;;5101178;27;45312;-75
2022/09/08 00:35:31;;;;;;;;;0.25;0.25;;;;;;;;5112998;27;45464;-75
2022/09/08 00:37:57;;;;;;;;;1.00;1.00;;;;;;;;5122399;27;45294;-75
2022/09/08 00:40:23;;;;;;;;;1.00;1.00;;;;;;;;5121823;27;46606;-74
2022/09/08 00:42:57;;;;;;;;;0.50;0.50;;;;;;;;5121917;27;46324;-74
2022/09/08 00:45:23;;;;;;;;;1.33;1.33;;;;;;;;5122028;27;45425;-75
2022/09/08 00:47:56;;;;;;;;;0.50;0.00;;;;;;;;5122111;27;45471;-75
2022/09/08 00:50:24;;;;;;;;;4.67;2.00;;;;;;;;5121676;27;45354;-75
2022/09/08 00:52:53;;;;;;;;;1.75;1.00;;;;;;;;5105839;27;45392;-75
2022/09/08 00:55:19;;;;;;;;;2.00;0.00;;;;;;;;5101286;27;45166;-74
2022/09/08 00:57:45;;;;;;;;;1.00;1.00;;;;;;;;5101569;27;45258;-74
2022/09/08 01:00:13;;;;;;;;;0.25;0.25;;;;;;;;5100859;27;46098;-75
2022/09/08 01:02:38;;;;;;;;;1.50;1.50;;;;;;;;5100929;27;45719;-75
2022/09/08 01:05:10;;;;;;;;;1.00;1.00;;;;;;;;5101032;27;45409;-76
2022/09/08 01:13:40;;;;;;;;;2.25;2.25;;;;;;;;5121556;27;45421;-74
2022/09/08 01:16:06;;;;;;;;;3.00;1.00;;;;;;;;5121401;27;45304;-74
2022/09/08 01:18:33;;;;;;;;;3.00;1.00;;;;;;;;5121414;27;46042;-74
2022/09/08 01:21:15;;;;;;;;;1.00;1.00;;;;;;;;5121260;27;46694;-75
2022/09/08 01:23:59;;;;;;;;;1.00;1.00;;;;;;;;5124208;27;45267;-75
2022/09/08 01:26:45;;;;;;;;;0.75;0.75;;;;;;;;5142375;27;45313;-74
2022/09/08 01:29:10;;;;;;;;;1.00;1.00;;;;;;;;5142148;27;45301;-74
2022/09/08 01:31:37;;;;;;;;;1.00;1.00;;;;;;;;5141949;27;45715;-74
2022/09/08 01:34:02;;;;;;;;;2.50;2.00;;;;;;;;5141794;27;45383;-75
2022/09/08 01:36:28;;;;;;;;;3.00;1.00;;;;;;;;5141904;27;45165;-75
2022/09/08 01:38:53;;;;;;;;;1.00;1.00;;;;;;;;5141356;27;45270;-74
2022/09/08 01:41:18;;;;;;;;;1.67;1.00;;;;;;;;5121790;27;46482;-74
2022/09/08 01:43:43;;;;;;;;;3.33;1.00;;;;;;;;5120799;27;45459;-74
2022/09/08 01:46:09;;;;;;;;;0.00;0.00;;;;;;;;5121382;27;45395;-74
2022/09/08 01:48:35;;;;;;;;;1.00;1.00;;;;;;;;5121084;27;45373;-75
2022/09/08 01:51:01;;;;;;;;;0.00;0.00;;;;;;;;5120943;27;46473;-75
2022/09/08 01:53:27;;;;;;;;;1.00;1.00;;;;;;;;5120624;27;45558;-75
2022/09/08 01:55:52;;;;;;;;;1.75;1.00;;;;;;;;5106103;27;45655;-74
2022/09/08 01:58:17;;;;;;;;;0.75;0.75;;;;;;;;5100443;27;45280;-74
2022/09/08 02:00:42;;;;;;;;;0.25;0.25;;;;;;;;5100047;27;45451;-75
2022/09/08 02:03:09;;;;;;;;;3.00;1.00;;;;;;;;5099955;27;45452;-74
2022/09/08 02:05:37;;;;;;;;;3.67;2.00;;;;;;;;5099923;27;45451;-75
2022/09/08 02:08:02;;;;;;;;;1.75;1.00;;;;;;;;5099706;27;45304;-76
2022/09/08 02:10:28;;;;;;;;;0.00;0.00;;;;;;;;5100004;27;45466;-75
2022/09/08 02:12:53;;;;;;;;;0.00;0.00;;;;;;;;5099315;27;45542;-74
2022/09/08 02:15:18;;;;;;;;;1.00;1.00;;;;;;;;5100138;27;45443;-75
2022/09/08 02:17:43;;;;;;;;;0.00;0.00;;;;;;;;5099922;27;45192;-75
2022/09/08 02:20:09;;;;;;;;;2.00;0.75;;;;;;;;5099818;27;45670;-76
2022/09/08 02:22:34;;;;;;;;;1.00;1.00;;;;;;;;5099747;27;45493;-75
2022/09/08 02:24:59;;;;;;;;;2.00;0.50;;;;;;;;5099748;27;45212;-75
2022/09/08 02:27:24;;;;;;;;;3.00;2.00;;;;;;;;5100166;27;45287;-75
2022/09/08 02:29:49;;;;;;;;;3.75;0.50;;;;;;;;5106380;27;45475;-75
2022/09/08 02:32:15;;;;;;;;;1.00;1.00;;;;;;;;5120332;27;45409;-75
2022/09/08 02:34:40;;;;;;;;;0.00;0.00;;;;;;;;5120392;27;45636;-75
2022/09/08 02:37:05;;;;;;;;;1.00;1.00;;;;;;;;5120284;27;45349;-75
2022/09/08 02:39:30;;;;;;;;;4.25;1.00;;;;;;;;5120146;27;46177;-75
2022/09/08 02:41:56;;;;;;;;;3.00;1.00;;;;;;;;5120098;27;45432;-75
2022/09/08 02:44:21;;;;;;;;;0.00;0.00;;;;;;;;5120137;27;45371;-75
2022/09/08 02:46:46;;;;;;;;;2.00;2.00;;;;;;;;5109299;27;45892;-75
2022/09/08 02:49:12;;;;;;;;;2.50;1.00;;;;;;;;5098617;27;46424;-76
2022/09/08 02:51:37;;;;;;;;;2.25;0.50;;;;;;;;5098279;27;45405;-75
2022/09/08 02:54:03;;;;;;;;;1.00;1.00;;;;;;;;5099463;27;45488;-74
2022/09/08 02:56:28;;;;;;;;;0.00;0.00;;;;;;;;5099599;27;45288;-76
2022/09/08 02:58:54;;;;;;;;;1.25;0.00;;;;;;;;5099303;27;45450;-75
2022/09/08 03:01:20;;;;;;;;;1.00;1.00;;;;;;;;5102067;27;45387;-76
2022/09/08 03:03:46;;;;;;;;;1.00;1.00;;;;;;;;5119762;27;45420;-75
2022/09/08 03:06:11;;;;;;;;;2.00;0.00;;;;;;;;5120059;27;45456;-75
2022/09/08 03:08:36;;;;;;;;;0.75;0.75;;;;;;;;5119277;27;46590;-75
2022/09/08 03:11:02;;;;;;;;;2.00;1.00;;;;;;;;5119786;27;45265;-76
2022/09/08 03:13:28;;;;;;;;;1.50;0.75;;;;;;;;5119591;27;45298;-76
2022/09/08 03:15:53;;;;;;;;;1.00;1.00;;;;;;;;5119903;27;45204;-76
2022/09/08 03:18:18;;;;;;;;;1.00;1.00;;;;;;;;5104230;27;46580;-75
2022/09/08 03:20:45;;;;;;;;;1.00;0.25;;;;;;;;5098989;27;45393;-76
2022/09/08 03:23:20;;;;;;;;;0.25;0.00;;;;;;;;5099056;27;45474;-75
2022/09/08 03:25:46;;;;;;;;;1.00;1.00;;;;;;;;5098801;27;45228;-76
2022/09/08 03:28:16;;;;;;;;;1.00;1.00;;;;;;;;5098615;27;46269;-75
2022/09/08 03:30:41;;;;;;;;;1.00;0.00;;;;;;;;5098758;27;45257;-76
2022/09/08 03:33:07;;;;;;;;;0.75;0.00;;;;;;;;5098073;27;45146;-75
2022/09/08 03:35:32;;;;;;;;;2.00;1.00;;;;;;;;5099060;27;45375;-75
2022/09/08 03:37:57;;;;;;;;;0.00;0.00;;;;;;;;5098474;27;46620;-74
2022/09/08 03:40:23;;;;;;;;;1.00;1.00;;;;;;;;5098464;27;45421;-75
2022/09/08 03:42:48;;;;;;;;;1.00;1.00;;;;;;;;5098658;27;45351;-74
2022/09/08 03:45:16;;;;;;;;;0.00;0.00;;;;;;;;5098552;27;45481;-74
2022/09/08 03:47:42;;;;;;;;;1.00;1.00;;;;;;;;5098931;27;46716;-75
2022/09/08 03:50:08;;;;;;;;;2.00;2.00;;;;;;;;5097647;27;45867;-74
2022/09/08 03:52:33;;;;;;;;;1.75;1.75;;;;;;;;5098259;27;45406;-76
2022/09/08 03:54:58;;;;;;;;;1.00;1.00;;;;;;;;5098876;27;45311;-75
2022/09/08 03:57:25;;;;;;;;;0.75;0.75;;;;;;;;5098328;27;46273;-76
2022/09/08 03:59:51;;;;;;;;;0.75;0.50;;;;;;;;5098340;27;45323;-73
2022/09/08 04:02:17;;;;;;;;;2.00;0.25;;;;;;;;5097824;27;45233;-75
2022/09/08 04:04:42;;;;;;;;;0.00;0.00;;;;;;;;5097975;27;45411;-74
2022/09/08 04:07:09;;;;;;;;;3.00;2.00;;;;;;;;5107986;27;46621;-74
2022/09/08 04:09:34;;;;;;;;;1.00;1.00;;;;;;;;5118492;27;45389;-75
2022/09/08 04:12:00;;;;;;;;;3.00;0.75;;;;;;;;5118836;27;45290;-75
2022/09/08 04:14:25;;;;;;;;;1.25;0.75;;;;;;;;5118968;27;45333;-75
2022/09/08 04:16:51;;;;;;;;;1.00;1.00;;;;;;;;5118348;27;46470;-75
2022/09/08 04:19:16;;;;;;;;;1.75;1.75;;;;;;;;5118605;27;45240;-75
2022/09/08 04:21:41;;;;;;;;;2.67;2.00;;;;;;;;5114273;27;45293;-75
2022/09/08 04:24:06;;;;;;;;;4.67;4.00;;;;;;;;5098343;27;45297;-75
2022/09/08 04:26:32;;;;;;;;;1.00;1.00;;;;;;;;5097805;27;46629;-75
2022/09/08 04:28:57;;;;;;;;;3.00;1.75;;;;;;;;5097666;27;45345;-74
2022/09/08 04:31:23;;;;;;;;;2.00;2.00;;;;;;;;5098230;27;45291;-75
2022/09/08 04:33:48;;;;;;;;;3.25;1.00;;;;;;;;5098121;27;45465;-75
2022/09/08 04:36:20;;;;;;;;;1.00;1.00;;;;;;;;5097747;27;46203;-75
2022/09/08 04:38:45;;;;;;;;;6.00;6.00;;;;;;;;5116838;27;45324;-74
2022/09/08 04:41:12;;;;;;;;;3.50;1.25;;;;;;;;5118344;27;45340;-75
2022/09/08 04:43:37;;;;;;;;;2.00;0.75;;;;;;;;5118797;27;45356;-73
2022/09/08 04:46:03;;;;;;;;;3.25;1.00;;;;;;;;5118019;27;46241;-75
2022/09/08 04:48:30;;;;;;;;;2.00;2.00;;;;;;;;5118353;27;45337;-75
2022/09/08 04:50:55;;;;;;;;;1.50;1.50;;;;;;;;5118247;27;45346;-75
2022/09/08 04:53:21;;;;;;;;;1.00;1.00;;;;;;;;5113052;27;45390;-74
2022/09/08 04:55:46;;;;;;;;;1.00;1.00;;;;;;;;5097715;27;46219;-75
2022/09/08 04:58:12;;;;;;;;;1.50;0.75;;;;;;;;5097516;27;45220;-75
2022/09/08 05:00:37;;;;;;;;;2.00;1.00;;;;;;;;5097562;27;45245;-74
2022/09/08 05:03:02;;;;;;;;;1.00;1.00;;;;;;;;5097798;27;45208;-75
2022/09/08 05:05:28;;;;;;;;;1.25;1.25;;;;;;;;5096917;27;45583;-74
2022/09/08 05:07:53;;;;;;;;;1.00;1.00;;;;;;;;5097358;27;45374;-75
2022/09/08 05:10:18;;;;;;;;;15.33;15.33;;;;;;;;5096595;27;45217;-74
2022/09/08 05:12:43;;;;;;;;;4.00;2.00;;;;;;;;5097755;27;45184;-73
2022/09/08 05:15:09;;;;;;;;;3.00;2.00;;;;;;;;5100457;27;45619;-74
2022/09/08 05:17:34;;;;;;;;;2.00;2.00;;;;;;;;5100575;27;45220;-73
2022/09/08 05:19:59;;;;;;;;;3.00;1.50;;;;;;;;5100859;27;45425;-74
2022/09/08 05:22:24;;;;;;;;;1.00;1.00;;;;;;;;5101118;27;45223;-75
2022/09/08 05:24:50;;;;;;;;;1.00;1.00;;;;;;;;5100714;27;45494;-74
2022/09/08 05:27:15;;;;;;;;;2.25;1.00;;;;;;;;5102232;27;45273;-75
2022/09/08 05:29:40;;;;;;;;;2.75;2.00;;;;;;;;5121363;27;45451;-74
2022/09/08 05:32:06;;;;;;;;;7.33;5.33;;;;;;;;5121582;27;45191;-75
2022/09/08 05:34:31;;;;;;;;;4.00;3.00;;;;;;;;5120904;27;47485;-74
2022/09/08 05:36:56;;;;;;;;;1.75;1.75;;;;;;;;5120976;27;45336;-75
2022/09/08 05:39:22;;;;;;;;;3.00;2.00;;;;;;;;5121119;27;45299;-75
2022/09/08 05:41:47;;;;;;;;;14.67;12.00;;;;;;;;5114451;27;45736;-76
2022/09/08 05:44:14;;;;;;;;;2.00;2.00;;;;;;;;5116103;27;45461;-75
2022/09/08 05:46:39;;;;;;;;;2.00;2.00;;;;;;;;5106029;27;45474;-75
2022/09/08 05:49:04;;;;;;;;;3.00;3.00;;;;;;;;5121134;27;45312;-74
2022/09/08 05:51:32;;;;;;;;;2.75;2.75;;;;;;;;5120956;27;45536;-75
2022/09/08 05:53:58;;;;;;;;;4.00;2.00;;;;;;;;5120646;27;46561;-75
2022/09/08 05:56:23;;;;;;;;;2.50;1.75;;;;;;;;5120770;27;45448;-74
2022/09/08 05:58:52;;;;;;;;;2.25;2.00;;;;;;;;5120756;27;45535;-74
2022/09/08 06:01:18;;;;;;;;;4.33;3.33;;;;;;;;5119227;27;45374;-75
2022/09/08 06:03:43;;;;;;;;;2.25;2.25;;;;;;;;5099848;27;46616;-75
2022/09/08 06:06:09;;;;;;;;;5.33;4.00;;;;;;;;5099718;27;45391;-75
2022/09/08 06:08:36;;;;;;;;;2.25;2.25;;;;;;;;5099952;27;45326;-75
2022/09/08 06:11:01;;;;;;;;;4.00;2.00;;;;;;;;5099977;27;45374;-76
2022/09/08 06:13:26;;;;;;;;;6.67;6.67;;;;;;;;5099958;27;45387;-75
2022/09/08 06:15:52;;;;;;;;;2.67;2.00;;;;;;;;5099858;27;45353;-76
2022/09/08 06:18:17;;;;;;;;;5.00;3.25;;;;;;;;5099594;27;45288;-75
2022/09/08 06:20:43;;;;;;;;;5.67;4.00;;;;;;;;5099842;27;45429;-75
2022/09/08 06:23:09;;;;;;;;;3.00;3.00;;;;;;;;5099494;27;46984;-75
2022/09/08 06:25:38;;;;;;;;;1.00;1.00;;;;;;;;5099349;27;45229;-75
2022/09/08 06:28:24;;;;;;;;;6.25;5.00;;;;;;;;5099628;27;45317;-75
2022/09/08 06:30:50;;;;;;;;;2.00;2.00;;;;;;;;5098723;27;45420;-75
2022/09/08 06:33:18;;;;;;;;;2.00;2.00;;;;;;;;5099448;27;46361;-75
2022/09/08 06:35:55;;;;;;;;;2.00;2.00;;;;;;;;5099116;27;45390;-75
2022/09/08 06:38:44;;;;;;;;;4.00;1.00;;;;;;;;5099678;27;45308;-75
2022/09/08 06:41:12;;;;;;;;;14.67;8.67;;;;;;;;4996852;28;45560;-75
2022/09/08 06:43:54;;;;;;;;;3.00;2.33;;;;;;;;4996440;28;46243;-73
2022/09/08 06:46:25;;;;;;;;;2.00;2.00;;;;;;;;4996491;28;45611;-75
2022/09/08 06:48:51;;;;;;;;;4.00;2.33;;;;;;;;4980194;28;45236;-73
2022/09/08 06:51:24;;;;;;;;;4.50;1.25;;;;;;;;4996456;28;45362;-75
2022/09/08 06:54:05;;;;;;;;;4.25;2.50;;;;;;;;5004556;28;46716;-75
2022/09/08 06:56:39;;;;;;;;;2.00;2.00;;;;;;;;5016294;28;45441;-72
2022/09/08 06:59:21;;;;;;;;;8.67;8.67;;;;;;;;5015534;28;45350;-73
2022/09/08 07:01:55;;;;;;;;;2.00;1.75;;;;;;;;5014931;28;45439;-75
2022/09/08 07:04:23;;;;;;;;;3.50;2.75;;;;;;;;5015713;28;45354;-73
2022/09/08 07:06:58;;;;;;;;;6.50;2.00;;;;;;;;5015655;28;45520;-73
2022/09/08 07:09:49;;;;;;;;;2.50;2.00;;;;;;;;5014931;28;45429;-73
2022/09/08 07:12:14;;;;;;;;;3.50;1.25;;;;;;;;4986267;28;45436;-73
2022/09/08 07:14:47;;;;;;;;;3.25;2.00;;;;;;;;5015637;28;46425;-74
2022/09/08 07:17:17;;;;;;;;;2.50;2.50;;;;;;;;5024399;27;45294;-74
2022/09/08 07:19:49;;;;;;;;;2.00;2.00;;;;;;;;5098918;27;45418;-74
2022/09/08 07:22:14;;;;;;;;;1.50;1.25;;;;;;;;5098746;27;45358;-73
2022/09/08 07:24:41;;;;;;;;;4.00;1.75;;;;;;;;5098436;27;45465;-73
2022/09/08 07:27:10;;;;;;;;;1.50;1.25;;;;;;;;5098196;27;45370;-73
2022/09/08 07:29:40;;;;;;;;;4.75;2.00;;;;;;;;5098612;27;45311;-74
2022/09/08 07:32:10;;;;;;;;;1.00;1.00;;;;;;;;5098874;27;45485;-74
2022/09/08 07:34:40;;;;;;;;;2.50;2.00;;;;;;;;5098223;27;45389;-73
2022/09/08 07:37:11;;;;;;;;;3.00;1.00;;;;;;;;5097354;27;45457;-74
2022/09/08 07:39:39;;;;;;;;;1.00;1.00;;;;;;;;5098440;27;45339;-74
2022/09/08 07:42:05;;;;;;;;;2.00;2.00;;;;;;;;5098635;27;45315;-73
2022/09/08 07:44:33;;;;;;;;;3.00;1.33;;;;;;;;5102210;27;45552;-77
2022/09/08 07:47:04;;;;;;;;;8.33;5.00;;;;;;;;5117722;27;45387;-74
2022/09/08 07:49:44;;;;;;;;;3.00;2.00;;;;;;;;5119128;27;45285;-73
2022/09/08 07:52:10;;;;;;;;;4.00;2.00;;;;;;;;5119118;27;45343;-74
2022/09/08 07:55:03;;;;;;;;;3.67;2.00;;;;;;;;5118590;27;46540;-74
2022/09/08 07:57:37;;;;;;;;;1.33;1.33;;;;;;;;5118557;27;45427;-73
2022/09/08 08:00:07;;;;;;;;;2.00;1.00;;;;;;;;5100241;27;45537;-73
2022/09/08 08:02:48;;;;;;;;;4.50;2.00;;;;;;;;5098326;27;45529;-73
2022/09/08 08:05:28;;;;;;;;;1.00;1.00;;;;;;;;5097544;27;46646;-73
2022/09/08 08:07:53;;;;;;;;;1.75;1.75;;;;;;;;5097785;27;45433;-74
2022/09/08 08:10:27;;;;;;;;;5.00;1.67;;;;;;;;5097976;27;45424;-73
2022/09/08 08:12:55;;;;;;;;;2.67;0.67;;;;;;;;5098418;27;45338;-74
2022/09/08 08:15:20;;;;;;;;;3.00;3.00;;;;;;;;5097155;27;45351;-73
2022/09/08 08:18:04;;;;;;;;;2.00;2.00;;;;;;;;5097811;27;45241;-74
2022/09/08 08:20:32;;;;;;;;;4.50;2.00;;;;;;;;5098042;27;45460;-74
2022/09/08 08:23:06;;;;;;;;;3.25;2.00;;;;;;;;5098165;27;45338;-73
2022/09/08 08:25:46;;;;;;;;;3.33;3.00;;;;;;;;5097465;27;46167;-74
2022/09/08 08:28:19;;;;;;;;;4.75;1.00;;;;;;;;5097770;27;45389;-74
2022/09/08 08:30:56;;;;;;;;;2.75;1.50;;;;;;;;5097946;27;45536;-74
2022/09/08 08:33:32;;;;;;;;;2.33;2.00;;;;;;;;5097880;27;45660;-74
2022/09/08 08:36:03;;;;;;;;;5.50;1.50;;;;;;;;5097517;27;46636;-75
2022/09/08 08:38:31;;;;;;;;;4.33;4.33;;;;;;;;5097257;27;45453;-74
2022/09/08 08:40:58;;;;;;;;;3.67;3.67;;;;;;;;5097762;27;45375;-74
2022/09/08 08:43:41;;;;;;;;;1.00;1.00;;;;;;;;5097847;27;45223;-74
2022/09/08 08:46:10;;;;;;;;;4.00;2.67;;;;;;;;5097214;27;46321;-74
2022/09/08 08:48:59;;;;;;;;;2.50;0.75;;;;;;;;5099926;27;45333;-74
2022/09/08 08:51:33;;;;;;;;;4.25;2.50;;;;;;;;5101214;27;45485;-73
2022/09/08 08:53:59;;;;;;;;;2.00;2.00;;;;;;;;5101167;27;45271;-74
2022/09/08 08:56:36;;;;;;;;;2.50;2.00;;;;;;;;5100679;27;46561;-74
2022/09/08 08:59:18;;;;;;;;;2.50;1.00;;;;;;;;5100952;27;45271;-74
2022/09/08 09:02:01;;;;;;;;;2.00;2.00;;;;;;;;5100932;27;45343;-74
2022/09/08 09:04:29;;;;;;;;;2.00;1.00;;;;;;;;5100715;27;45225;-73
2022/09/08 09:07:13;;;;;;;;;2.50;2.50;;;;;;;;5100780;27;45413;-74
2022/09/08 09:09:44;;;;;;;;;3.00;2.00;;;;;;;;5100497;27;45380;-74
2022/09/08 09:12:28;;;;;;;;;10.00;10.00;;;;;;;;5100814;27;45220;-74
2022/09/08 09:15:05;;;;;;;;;3.50;2.25;;;;;;;;5100978;27;45218;-75
2022/09/08 09:17:46;;;;;;;;;1.50;1.00;;;;;;;;5100681;27;45230;-74
2022/09/08 09:20:32;;;;;;;;;1.67;1.67;;;;;;;;5100370;27;45405;-73
2022/09/08 09:23:15;;;;;;;;;2.50;2.25;;;;;;;;5100391;27;45312;-73
2022/09/08 09:25:51;;;;;;;;;5.00;1.00;;;;;;;;5100937;27;45352;-74
2022/09/08 09:28:23;;;;;;;;;1.50;1.00;;;;;;;;5100713;27;45406;-74
2022/09/08 09:31:01;;;;;;;;;2.00;2.00;;;;;;;;5100194;27;45840;-74
2022/09/08 09:33:38;;;;;;;;;0.25;0.25;;;;;;;;5100613;27;45320;-74
2022/09/08 09:36:18;;;;;;;;;1.50;1.50;;;;;;;;5100703;27;45355;-73
2022/09/08 09:38:46;;;;;;;;;3.00;3.00;;;;;;;;5106012;27;45851;-73
2022/09/08 09:41:30;;;;;;;;;3.25;2.75;;;;;;;;5120733;27;45397;-74
2022/09/08 09:44:14;;;;;;;;;3.67;2.67;;;;;;;;5120950;27;45441;-73
2022/09/08 09:46:59;;;;;;;;;4.67;1.00;;;;;;;;5121163;27;45319;-73
2022/09/08 09:49:25;;;;;;;;;0.25;0.25;;;;;;;;5120637;27;46809;-73
2022/09/08 09:52:09;;;;;;;;;2.33;1.00;;;;;;;;5120760;27;45429;-73
2022/09/08 09:54:48;;;;;;;;;2.67;2.33;;;;;;;;5121018;27;45366;-73
2022/09/08 09:57:33;;;;;;;;;2.67;2.33;;;;;;;;5119494;27;46190;-72
2022/09/08 10:00:01;;;;;;;;;1.00;1.00;;;;;;;;5119876;27;45336;-72
2022/09/08 10:02:46;;;;;;;;;1.00;1.00;;;;;;;;5120529;27;45467;-73
2022/09/08 10:05:25;;;;;;;;;1.00;1.00;;;;;;;;5120470;27;45534;-74
2022/09/08 10:08:18;;;;;;;;;2.00;2.00;;;;;;;;5120504;27;45252;-73
2022/09/08 10:10:43;;;;;;;;;3.33;1.00;;;;;;;;5120452;27;45620;-74
2022/09/08 10:13:17;;;;;;;;;3.00;2.00;;;;;;;;5103817;27;45477;-74
2022/09/08 10:15:48;;;;;;;;;1.00;1.00;;;;;;;;5099993;27;45534;-73
2022/09/08 10:18:32;;;;;;;;;1.00;0.75;;;;;;;;5100219;27;45323;-73
2022/09/08 10:21:12;;;;;;;;;2.00;2.00;;;;;;;;5099670;27;45715;-73
2022/09/08 10:23:56;;;;;;;;;1.33;1.00;;;;;;;;5099794;27;46137;-73
2022/09/08 10:26:37;;;;;;;;;1.33;1.00;;;;;;;;5099739;27;45407;-73
2022/09/08 10:29:02;;;;;;;;;8.33;2.33;;;;;;;;5102878;27;45299;-73
2022/09/08 10:31:46;;;;;;;;;4.67;4.00;;;;;;;;5120093;27;46176;-73
2022/09/08 10:34:17;;;;;;;;;4.33;3.00;;;;;;;;5120051;27;45366;-73
2022/09/08 10:36:55;;;;;;;;;4.67;2.00;;;;;;;;5120142;27;45351;-74
2022/09/08 10:39:41;;;;;;;;;4.00;2.67;;;;;;;;5120283;27;45848;-73
2022/09/08 10:42:25;;;;;;;;;3.00;3.00;;;;;;;;5119952;27;46326;-74
2022/09/08 10:44:58;;;;;;;;;5.25;2.00;;;;;;;;5119177;27;45476;-73
2022/09/08 10:47:31;;;;;;;;;5.00;2.00;;;;;;;;5120192;27;45479;-73
2022/09/08 10:49:59;;;;;;;;;3.67;2.00;;;;;;;;5119936;27;45634;-74
2022/09/08 10:52:42;;;;;;;;;2.00;2.00;;;;;;;;5119935;27;46387;-74
2022/09/08 10:55:27;;;;;;;;;2.00;1.33;;;;;;;;5116184;27;45496;-73
2022/09/08 10:58:10;;;;;;;;;4.33;2.00;;;;;;;;5118001;27;45475;-73
2022/09/08 11:01:04;;;;;;;;;2.00;1.00;;;;;;;;5118052;27;45370;-73
2022/09/08 11:03:32;;;;;;;;;3.67;2.00;;;;;;;;5118648;27;45740;-72
2022/09/08 11:06:03;;;;;;;;;4.00;2.33;;;;;;;;5118654;27;45424;-71
2022/09/08 11:08:40;;;;;;;;;1.50;1.00;;;;;;;;5118675;27;45287;-72
2022/09/08 11:11:08;;;;;;;;;2.67;2.00;;;;;;;;5118130;27;45411;-72
2022/09/08 11:13:42;;;;;;;;;1.33;1.33;;;;;;;;5118463;27;45464;-72
2022/09/08 11:16:18;;;;;;;;;3.00;3.00;;;;;;;;5113886;27;45537;-73
2022/09/08 11:18:43;;;;;;;;;4.00;2.67;;;;;;;;5098229;27;45385;-72
2022/09/08 11:21:10;;;;;;;;;2.00;2.00;;;;;;;;5098355;27;45531;-71
2022/09/08 11:23:41;;;;;;;;;2.00;1.33;;;;;;;;5097642;27;46336;-72
2022/09/08 11:26:18;;;;;;;;;2.25;1.00;;;;;;;;5097931;27;45302;-72
2022/09/08 11:29:02;;;;;;;;;2.50;1.00;;;;;;;;5098118;27;45336;-73
2022/09/08 11:31:32;;;;;;;;;3.00;1.00;;;;;;;;5097335;27;45605;-72
2022/09/08 11:34:08;;;;;;;;;1.75;1.75;;;;;;;;5097522;27;47928;-71
2022/09/08 11:36:45;;;;;;;;;2.00;2.00;;;;;;;;5105859;27;45454;-73
2022/09/08 11:39:19;;;;;;;;;2.50;1.00;;;;;;;;5118268;27;45466;-72
2022/09/08 11:41:51;;;;;;;;;1.00;1.00;;;;;;;;5118362;27;45397;-73
2022/09/08 11:44:19;;;;;;;;;2.67;1.00;;;;;;;;5117986;27;45589;-73
2022/09/08 11:46:50;;;;;;;;;3.00;2.00;;;;;;;;5118344;27;45211;-72
2022/09/08 11:49:33;;;;;;;;;3.00;1.67;;;;;;;;5117207;27;45408;-72
2022/09/08 11:52:17;;;;;;;;;1.00;1.00;;;;;;;;5118464;27;45435;-72
2022/09/08 11:54:51;;;;;;;;;3.33;2.33;;;;;;;;5117952;27;46281;-73
2022/09/08 11:57:20;;;;;;;;;7.00;2.00;;;;;;;;5117930;27;45316;-72
2022/09/08 12:00:05;;;;;;;;;1.00;1.00;;;;;;;;5118167;27;45377;-72
2022/09/08 12:02:49;;;;;;;;;3.00;1.00;;;;;;;;5118166;27;45445;-72
2022/09/08 12:05:21;;;;;;;;;3.00;3.00;;;;;;;;5117991;27;46583;-72
2022/09/08 12:07:59;;;;;;;;;1.33;1.00;;;;;;;;5096988;27;45353;-72
2022/09/08 12:10:30;;;;;;;;;2.25;0.50;;;;;;;;5097366;27;45435;-72
2022/09/08 12:13:04;;;;;;;;;1.33;0.00;;;;;;;;5097677;27;45500;-72
2022/09/08 12:15:42;;;;;;;;;2.25;0.00;;;;;;;;5097301;27;46655;-72
2022/09/08 12:18:30;;;;;;;;;2.00;1.00;;;;;;;;5097004;27;45451;-72
2022/09/08 12:21:02;;;;;;;;;4.67;1.00;;;;;;;;4994539;28;45506;-72
2022/09/08 12:23:50;;;;;;;;;0.25;0.00;;;;;;;;5018865;28;45531;-72
2022/09/08 12:26:15;;;;;;;;;3.00;2.00;;;;;;;;5020809;28;45501;-72
2022/09/08 12:29:09;;;;;;;;;0.00;0.00;;;;;;;;5021878;28;45537;-72
2022/09/08 12:31:37;;;;;;;;;41.00;36.33;;;;;;;;4982009;28;45542;-72
2022/09/08 12:34:15;;;;;;;;;2.33;1.00;;;;;;;;4982277;28;45470;-72
2022/09/08 12:36:40;;;;;;;;;1.50;0.00;;;;;;;;4981087;28;46443;-73
2022/09/08 12:39:06;;;;;;;;;2.75;0.00;;;;;;;;4981361;28;45593;-72
2022/09/08 12:42:06;;;;;;;;;2.00;0.75;;;;;;;;4982067;28;45452;-72
2022/09/08 12:44:31;;;;;;;;;0.00;0.00;;;;;;;;4962685;28;45466;-72
2022/09/08 12:47:15;;;;;;;;;0.25;0.25;;;;;;;;4962176;28;45461;-72
2022/09/08 12:49:52;;;;;;;;;1.00;1.00;;;;;;;;4962194;28;45424;-72
2022/09/08 12:52:23;;;;;;;;;0.00;0.00;;;;;;;;4962327;28;45401;-72
2022/09/08 12:54:51;;;;;;;;;0.33;0.33;;;;;;;;4961093;28;45674;-72
2022/09/08 12:57:30;;;;;;;;;0.00;0.00;;;;;;;;4966253;28;46592;-72
2022/09/08 12:59:55;;;;;;;;;4.50;0.00;;;;;;;;4981565;28;45583;-72
2022/09/08 13:02:30;;;;;;;;;0.50;0.50;;;;;;;;4981708;28;45456;-72
2022/09/08 13:05:15;;;;;;;;;0.00;0.00;;;;;;;;4982112;28;45369;-72
2022/09/08 13:07:52;;;;;;;;;3.00;2.00;;;;;;;;5003076;28;46735;-72
2022/09/08 13:10:28;;;;;;;;;2.00;1.00;;;;;;;;5046544;28;45607;-72
2022/09/08 13:13:05;;;;;;;;;1.00;1.00;;;;;;;;5061233;28;45373;-72
2022/09/08 13:15:34;;;;;;;;;0.00;0.00;;;;;;;;5061662;28;45356;-72
2022/09/08 13:18:11;;;;;;;;;1.00;1.00;;;;;;;;5073387;27;45317;-73
2022/09/08 13:20:36;;;;;;;;;1.33;0.67;;;;;;;;5104088;27;45190;-75
2022/09/08 13:23:16;;;;;;;;;1.00;1.00;;;;;;;;5104401;27;45425;-73
2022/09/08 13:25:50;;;;;;;;;1.00;0.00;;;;;;;;5104182;27;45386;-72
2022/09/08 13:28:30;;;;;;;;;0.00;0.00;;;;;;;;5103345;27;46142;-72
2022/09/08 13:30:56;;;;;;;;;2.33;0.00;;;;;;;;5103899;27;45310;-72
2022/09/08 13:33:24;;;;;;;;;2.33;1.00;;;;;;;;5103468;27;46283;-72
2022/09/08 13:36:04;;;;;;;;;1.33;0.00;;;;;;;;5100449;27;45350;-73
2022/09/08 13:38:35;;;;;;;;;1.25;0.00;;;;;;;;5100262;27;46279;-73
2022/09/08 13:41:12;;;;;;;;;1.00;0.00;;;;;;;;5100345;27;45414;-72
2022/09/08 13:43:56;;;;;;;;;1.00;1.00;;;;;;;;5100192;27;45860;-72
2022/09/08 13:46:39;;;;;;;;;1.00;0.00;;;;;;;;5100593;27;45347;-72
2022/09/08 13:49:05;;;;;;;;;2.00;1.00;;;;;;;;5100288;27;45434;-73
2022/09/08 13:51:33;;;;;;;;;1.00;1.00;;;;;;;;5100100;27;45537;-73
2022/09/08 13:54:01;;;;;;;;;1.00;0.00;;;;;;;;5100471;27;45388;-72
2022/09/08 13:56:44;;;;;;;;;0.00;0.00;;;;;;;;5100503;27;45228;-72
2022/09/08 13:59:12;;;;;;;;;1.00;0.67;;;;;;;;5100121;27;45779;-72
2022/09/08 14:01:39;;;;;;;;;2.33;2.33;;;;;;;;5099256;27;45460;-72
2022/09/08 14:04:14;;;;;;;;;5.00;0.50;;;;;;;;5100336;27;45361;-71
2022/09/08 14:06:42;;;;;;;;;2.00;0.00;;;;;;;;5100179;27;45527;-73
2022/09/08 14:09:15;;;;;;;;;0.33;0.33;;;;;;;;5099770;27;46435;-72
2022/09/08 14:11:43;;;;;;;;;4.67;3.33;;;;;;;;5099774;27;45464;-72
2022/09/08 14:14:14;;;;;;;;;3.00;3.00;;;;;;;;5100135;27;45473;-73
2022/09/08 14:16:40;;;;;;;;;0.00;0.00;;;;;;;;5081675;27;45269;-72
2022/09/08 14:19:05;;;;;;;;;5.33;3.00;;;;;;;;5117457;27;45452;-72
2022/09/08 14:21:34;;;;;;;;;1.33;1.33;;;;;;;;5120412;27;45406;-72
2022/09/08 14:24:19;;;;;;;;;1.00;1.00;;;;;;;;5120535;27;45531;-73
2022/09/08 14:26:56;;;;;;;;;2.00;1.67;;;;;;;;5120229;27;45487;-73
2022/09/08 14:29:25;;;;;;;;;0.33;0.00;;;;;;;;5120164;27;46590;-72
2022/09/08 14:31:56;;;;;;;;;4.33;1.00;;;;;;;;5120322;27;45353;-73
2022/09/08 14:34:33;;;;;;;;;0.00;0.00;;;;;;;;5119510;27;45396;-73
2022/09/08 14:37:15;;;;;;;;;0.00;0.00;;;;;;;;5120324;27;45510;-72
2022/09/08 14:39:46;;;;;;;;;1.00;1.00;;;;;;;;5119987;27;46706;-72
2022/09/08 14:42:19;;;;;;;;;18.33;15.33;;;;;;;;5119931;27;45192;-72
2022/09/08 14:45:02;;;;;;;;;1.00;0.33;;;;;;;;5120061;27;45509;-72
2022/09/08 14:47:33;;;;;;;;;0.33;0.00;;;;;;;;5120396;27;45404;-72
2022/09/08 14:50:15;;;;;;;;;4.00;1.00;;;;;;;;5113294;27;46427;-72
2022/09/08 14:53:01;;;;;;;;;2.00;0.33;;;;;;;;5099262;27;45427;-72
2022/09/08 14:55:35;;;;;;;;;2.00;0.00;;;;;;;;5099460;27;45323;-72
2022/09/08 14:58:18;;;;;;;;;0.00;0.00;;;;;;;;5099827;27;45739;-72
2022/09/08 15:00:46;;;;;;;;;0.33;0.33;;;;;;;;5099177;27;46436;-72
2022/09/08 15:03:34;;;;;;;;;2.33;0.33;;;;;;;;5099131;27;45307;-72
2022/09/08 15:05:59;;;;;;;;;5.33;1.00;;;;;;;;5102835;27;45306;-71
2022/09/08 15:08:33;;;;;;;;;0.67;0.67;;;;;;;;5140765;27;45554;-72
2022/09/08 15:11:09;;;;;;;;;0.00;0.00;;;;;;;;5121554;27;46820;-72
2022/09/08 15:13:39;;;;;;;;;2.00;0.00;;;;;;;;5140312;27;45211;-72